sensor_id;sensor_type;location;lat;lon;timestamp;P1;durP1;ratioP1;P2;durP2;ratioP2
75603;SDS011;64187;51.010;13.792;2023-05-10T00:03:18;2.60;;;1.65;;
75603;SDS011;64187;51.010;13.792;2023-05-10T00:08:17;2.42;;;2.00;;
75603;SDS011;64187;51.010;13.792;2023-05-10T00:13:16;2.30;;;1.50;;
75603;SDS011;64187;51.010;13.792;2023-05-10T00:18:15;2.65;;;1.67;;
75603;SDS011;64187;51.010;13.792;2023-05-10T00:23:14;3.78;;;1.80;;
75603;SDS011;64187;51.010;13.792;2023-05-10T00:28:13;3.50;;;1.80;;
75603;SDS011;64187;51.010;13.792;2023-05-10T00:33:12;2.65;;;2.00;;
75603;SDS011;64187;51.010;13.792;2023-05-10T00:38:10;3.38;;;1.60;;
75603;SDS011;64187;51.010;13.792;2023-05-10T00:43:09;3.85;;;1.85;;
75603;SDS011;64187;51.010;13.792;2023-05-10T00:48:08;2.90;;;1.50;;
75603;SDS011;64187;51.010;13.792;2023-05-10T00:53:08;5.55;;;2.08;;
75603;SDS011;64187;51.010;13.792;2023-05-10T00:58:08;3.17;;;1.58;;
75603;SDS011;64187;51.010;13.792;2023-05-10T01:03:07;1.80;;;1.40;;
75603;SDS011;64187;51.010;13.792;2023-05-10T01:08:06;2.88;;;1.92;;
75603;SDS011;64187;51.010;13.792;2023-05-10T01:13:07;3.58;;;1.65;;
75603;SDS011;64187;51.010;13.792;2023-05-10T01:18:06;3.80;;;1.52;;
75603;SDS011;64187;51.010;13.792;2023-05-10T01:33:59;2.70;;;1.77;;
75603;SDS011;64187;51.010;13.792;2023-05-10T01:49:49;2.55;;;1.65;;
75603;SDS011;64187;51.010;13.792;2023-05-10T01:55:00;2.75;;;1.80;;
75603;SDS011;64187;51.010;13.792;2023-05-10T02:00:02;4.93;;;1.70;;
75603;SDS011;64187;51.010;13.792;2023-05-10T02:05:12;2.60;;;1.80;;
75603;SDS011;64187;51.010;13.792;2023-05-10T02:10:12;3.25;;;1.80;;
75603;SDS011;64187;51.010;13.792;2023-05-10T02:15:15;3.20;;;1.70;;
75603;SDS011;64187;51.010;13.792;2023-05-10T02:20:17;2.10;;;1.98;;
75603;SDS011;64187;51.010;13.792;2023-05-10T02:25:19;2.63;;;1.50;;
75603;SDS011;64187;51.010;13.792;2023-05-10T02:30:20;2.30;;;1.48;;
75603;SDS011;64187;51.010;13.792;2023-05-10T02:35:21;2.40;;;1.80;;
75603;SDS011;64187;51.010;13.792;2023-05-10T02:40:21;5.57;;;1.95;;
75603;SDS011;64187;51.010;13.792;2023-05-10T02:45:27;7.65;;;1.90;;
75603;SDS011;64187;51.010;13.792;2023-05-10T02:50:28;3.65;;;1.92;;
75603;SDS011;64187;51.010;13.792;2023-05-10T02:55:32;2.50;;;1.85;;
75603;SDS011;64187;51.010;13.792;2023-05-10T03:00:36;1.75;;;1.52;;
75603;SDS011;64187;51.010;13.792;2023-05-10T03:05:35;2.90;;;1.80;;
75603;SDS011;64187;51.010;13.792;2023-05-10T03:10:47;3.05;;;1.50;;
75603;SDS011;64187;51.010;13.792;2023-05-10T03:16:19;2.45;;;1.55;;
75603;SDS011;64187;51.010;13.792;2023-05-10T03:21:26;3.05;;;1.70;;
75603;SDS011;64187;51.010;13.792;2023-05-10T03:26:28;4.85;;;2.35;;
75603;SDS011;64187;51.010;13.792;2023-05-10T03:31:40;4.22;;;1.80;;
75603;SDS011;64187;51.010;13.792;2023-05-10T03:36:39;3.30;;;2.05;;
75603;SDS011;64187;51.010;13.792;2023-05-10T03:41:38;2.53;;;1.98;;
75603;SDS011;64187;51.010;13.792;2023-05-10T03:46:37;3.22;;;2.03;;
75603;SDS011;64187;51.010;13.792;2023-05-10T03:51:36;2.78;;;1.90;;
75603;SDS011;64187;51.010;13.792;2023-05-10T03:56:35;3.08;;;1.70;;
75603;SDS011;64187;51.010;13.792;2023-05-10T04:01:34;1.85;;;1.40;;
75603;SDS011;64187;51.010;13.792;2023-05-10T04:06:33;3.85;;;2.00;;
75603;SDS011;64187;51.010;13.792;2023-05-10T04:11:33;3.05;;;2.10;;
75603;SDS011;64187;51.010;13.792;2023-05-10T04:16:32;2.00;;;1.48;;
75603;SDS011;64187;51.010;13.792;2023-05-10T04:21:31;2.15;;;1.80;;
75603;SDS011;64187;51.010;13.792;2023-05-10T04:26:30;2.53;;;1.50;;
75603;SDS011;64187;51.010;13.792;2023-05-10T04:31:29;3.65;;;1.60;;
75603;SDS011;64187;51.010;13.792;2023-05-10T04:36:28;3.00;;;1.70;;
75603;SDS011;64187;51.010;13.792;2023-05-10T04:41:27;2.17;;;1.70;;
75603;SDS011;64187;51.010;13.792;2023-05-10T04:46:26;1.88;;;1.52;;
75603;SDS011;64187;51.010;13.792;2023-05-10T04:51:25;3.20;;;1.85;;
75603;SDS011;64187;51.010;13.792;2023-05-10T04:56:24;7.13;;;2.65;;
75603;SDS011;64187;51.010;13.792;2023-05-10T05:01:25;2.22;;;1.60;;
75603;SDS011;64187;51.010;13.792;2023-05-10T05:06:24;3.33;;;1.58;;
75603;SDS011;64187;51.010;13.792;2023-05-10T05:11:23;4.57;;;1.92;;
75603;SDS011;64187;51.010;13.792;2023-05-10T05:16:23;1.92;;;1.40;;
75603;SDS011;64187;51.010;13.792;2023-05-10T05:21:23;3.47;;;1.60;;
75603;SDS011;64187;51.010;13.792;2023-05-10T05:26:22;2.45;;;1.77;;
75603;SDS011;64187;51.010;13.792;2023-05-10T05:31:21;4.20;;;1.77;;
75603;SDS011;64187;51.010;13.792;2023-05-10T05:36:20;3.50;;;1.50;;
75603;SDS011;64187;51.010;13.792;2023-05-10T05:41:19;2.30;;;1.50;;
75603;SDS011;64187;51.010;13.792;2023-05-10T05:46:19;3.13;;;1.70;;
75603;SDS011;64187;51.010;13.792;2023-05-10T05:51:18;2.47;;;1.67;;
75603;SDS011;64187;51.010;13.792;2023-05-10T05:56:17;4.55;;;1.63;;
75603;SDS011;64187;51.010;13.792;2023-05-10T06:01:22;3.33;;;1.85;;
75603;SDS011;64187;51.010;13.792;2023-05-10T06:06:21;2.30;;;1.75;;
75603;SDS011;64187;51.010;13.792;2023-05-10T06:11:20;2.78;;;1.85;;
75603;SDS011;64187;51.010;13.792;2023-05-10T06:16:22;2.03;;;1.50;;
75603;SDS011;64187;51.010;13.792;2023-05-10T06:21:21;4.43;;;2.00;;
75603;SDS011;64187;51.010;13.792;2023-05-10T06:26:19;5.28;;;1.90;;
75603;SDS011;64187;51.010;13.792;2023-05-10T06:31:19;3.47;;;1.90;;
75603;SDS011;64187;51.010;13.792;2023-05-10T06:36:18;3.25;;;1.83;;
75603;SDS011;64187;51.010;13.792;2023-05-10T06:41:16;2.65;;;1.73;;
75603;SDS011;64187;51.010;13.792;2023-05-10T06:46:15;3.13;;;2.00;;
75603;SDS011;64187;51.010;13.792;2023-05-10T06:51:14;2.45;;;1.92;;
75603;SDS011;64187;51.010;13.792;2023-05-10T06:56:13;3.30;;;2.13;;
75603;SDS011;64187;51.010;13.792;2023-05-10T07:01:12;2.90;;;1.83;;
75603;SDS011;64187;51.010;13.792;2023-05-10T07:06:11;2.97;;;2.13;;
75603;SDS011;64187;51.010;13.792;2023-05-10T07:11:22;2.10;;;1.77;;
75603;SDS011;64187;51.010;13.792;2023-05-10T07:16:22;8.50;;;3.67;;
75603;SDS011;64187;51.010;13.792;2023-05-10T07:21:21;5.68;;;2.38;;
75603;SDS011;64187;51.010;13.792;2023-05-10T07:26:24;4.53;;;2.28;;
75603;SDS011;64187;51.010;13.792;2023-05-10T07:31:23;3.67;;;1.75;;
75603;SDS011;64187;51.010;13.792;2023-05-10T07:36:22;3.80;;;2.00;;
75603;SDS011;64187;51.010;13.792;2023-05-10T07:41:21;3.63;;;2.00;;
75603;SDS011;64187;51.010;13.792;2023-05-10T07:46:20;3.10;;;2.30;;
75603;SDS011;64187;51.010;13.792;2023-05-10T07:51:19;3.53;;;2.25;;
75603;SDS011;64187;51.010;13.792;2023-05-10T07:56:20;4.57;;;1.98;;
75603;SDS011;64187;51.010;13.792;2023-05-10T08:01:21;4.38;;;1.98;;
75603;SDS011;64187;51.010;13.792;2023-05-10T08:06:20;5.32;;;2.28;;
75603;SDS011;64187;51.010;13.792;2023-05-10T08:11:20;5.32;;;2.00;;
75603;SDS011;64187;51.010;13.792;2023-05-10T08:16:24;4.88;;;2.55;;
75603;SDS011;64187;51.010;13.792;2023-05-10T08:21:23;4.38;;;2.42;;
75603;SDS011;64187;51.010;13.792;2023-05-10T08:26:22;4.20;;;2.30;;
75603;SDS011;64187;51.010;13.792;2023-05-10T08:31:21;3.67;;;2.28;;
75603;SDS011;64187;51.010;13.792;2023-05-10T08:36:20;2.70;;;2.00;;
75603;SDS011;64187;51.010;13.792;2023-05-10T08:41:20;3.83;;;2.45;;
75603;SDS011;64187;51.010;13.792;2023-05-10T08:46:21;3.15;;;2.17;;
75603;SDS011;64187;51.010;13.792;2023-05-10T08:51:24;5.35;;;3.08;;
75603;SDS011;64187;51.010;13.792;2023-05-10T08:56:29;3.58;;;2.60;;
75603;SDS011;64187;51.010;13.792;2023-05-10T09:01:28;2.70;;;2.05;;
75603;SDS011;64187;51.010;13.792;2023-05-10T09:06:29;4.50;;;2.47;;
75603;SDS011;64187;51.010;13.792;2023-05-10T09:11:28;5.68;;;2.63;;
75603;SDS011;64187;51.010;13.792;2023-05-10T09:16:28;4.45;;;2.70;;
75603;SDS011;64187;51.010;13.792;2023-05-10T09:21:27;2.50;;;2.28;;
75603;SDS011;64187;51.010;13.792;2023-05-10T09:26:26;2.42;;;2.00;;
75603;SDS011;64187;51.010;13.792;2023-05-10T09:31:43;3.45;;;2.47;;
75603;SDS011;64187;51.010;13.792;2023-05-10T09:36:55;4.25;;;2.50;;
75603;SDS011;64187;51.010;13.792;2023-05-10T09:41:56;4.50;;;2.63;;
75603;SDS011;64187;51.010;13.792;2023-05-10T09:46:56;4.60;;;2.47;;
75603;SDS011;64187;51.010;13.792;2023-05-10T09:52:05;5.03;;;3.08;;
75603;SDS011;64187;51.010;13.792;2023-05-10T09:57:05;4.22;;;2.40;;
75603;SDS011;64187;51.010;13.792;2023-05-10T10:02:16;3.88;;;2.70;;
75603;SDS011;64187;51.010;13.792;2023-05-10T10:07:17;3.88;;;3.13;;
75603;SDS011;64187;51.010;13.792;2023-05-10T10:12:21;4.00;;;3.17;;
75603;SDS011;64187;51.010;13.792;2023-05-10T10:17:20;4.25;;;2.90;;
75603;SDS011;64187;51.010;13.792;2023-05-10T10:22:20;5.40;;;3.05;;
75603;SDS011;64187;51.010;13.792;2023-05-10T10:32:37;5.40;;;2.72;;
75603;SDS011;64187;51.010;13.792;2023-05-10T10:37:51;3.53;;;2.53;;
75603;SDS011;64187;51.010;13.792;2023-05-10T10:42:50;3.42;;;2.50;;
75603;SDS011;64187;51.010;13.792;2023-05-10T10:48:14;4.60;;;2.60;;
75603;SDS011;64187;51.010;13.792;2023-05-10T10:53:18;4.82;;;2.78;;
75603;SDS011;64187;51.010;13.792;2023-05-10T10:58:51;4.40;;;2.75;;
75603;SDS011;64187;51.010;13.792;2023-05-10T11:08:57;4.00;;;2.80;;
75603;SDS011;64187;51.010;13.792;2023-05-10T11:14:02;6.05;;;3.25;;
75603;SDS011;64187;51.010;13.792;2023-05-10T11:19:03;4.38;;;3.17;;
75603;SDS011;64187;51.010;13.792;2023-05-10T11:24:12;6.18;;;3.22;;
75603;SDS011;64187;51.010;13.792;2023-05-10T11:29:12;3.60;;;2.60;;
75603;SDS011;64187;51.010;13.792;2023-05-10T11:34:22;3.65;;;3.08;;
75603;SDS011;64187;51.010;13.792;2023-05-10T11:39:26;5.07;;;3.05;;
75603;SDS011;64187;51.010;13.792;2023-05-10T11:44:30;7.78;;;3.10;;
75603;SDS011;64187;51.010;13.792;2023-05-10T11:49:30;3.13;;;2.65;;
75603;SDS011;64187;51.010;13.792;2023-05-10T11:54:28;4.25;;;2.92;;
75603;SDS011;64187;51.010;13.792;2023-05-10T11:59:27;5.20;;;2.90;;
75603;SDS011;64187;51.010;13.792;2023-05-10T12:04:26;3.78;;;2.80;;
75603;SDS011;64187;51.010;13.792;2023-05-10T12:09:28;6.30;;;3.15;;
75603;SDS011;64187;51.010;13.792;2023-05-10T12:14:41;5.35;;;3.53;;
75603;SDS011;64187;51.010;13.792;2023-05-10T12:19:40;4.90;;;2.83;;
75603;SDS011;64187;51.010;13.792;2023-05-10T12:24:39;4.25;;;2.90;;
75603;SDS011;64187;51.010;13.792;2023-05-10T12:29:41;3.70;;;2.97;;
75603;SDS011;64187;51.010;13.792;2023-05-10T12:34:43;3.75;;;2.80;;
75603;SDS011;64187;51.010;13.792;2023-05-10T12:39:45;3.28;;;2.72;;
75603;SDS011;64187;51.010;13.792;2023-05-10T12:44:44;4.05;;;3.00;;
75603;SDS011;64187;51.010;13.792;2023-05-10T12:49:43;5.57;;;3.13;;
75603;SDS011;64187;51.010;13.792;2023-05-10T12:54:42;3.58;;;2.55;;
75603;SDS011;64187;51.010;13.792;2023-05-10T12:59:41;3.95;;;2.83;;
75603;SDS011;64187;51.010;13.792;2023-05-10T13:04:40;5.35;;;2.95;;
75603;SDS011;64187;51.010;13.792;2023-05-10T13:09:40;3.03;;;2.58;;
75603;SDS011;64187;51.010;13.792;2023-05-10T13:14:47;3.97;;;2.45;;
75603;SDS011;64187;51.010;13.792;2023-05-10T13:19:46;3.28;;;2.88;;
75603;SDS011;64187;51.010;13.792;2023-05-10T13:24:45;5.45;;;2.83;;
75603;SDS011;64187;51.010;13.792;2023-05-10T13:29:44;4.85;;;2.58;;
75603;SDS011;64187;51.010;13.792;2023-05-10T13:34:45;5.57;;;3.13;;
75603;SDS011;64187;51.010;13.792;2023-05-10T13:39:44;3.30;;;2.28;;
75603;SDS011;64187;51.010;13.792;2023-05-10T13:44:43;4.05;;;2.75;;
75603;SDS011;64187;51.010;13.792;2023-05-10T13:49:42;2.92;;;2.22;;
75603;SDS011;64187;51.010;13.792;2023-05-10T13:54:41;3.40;;;2.45;;
75603;SDS011;64187;51.010;13.792;2023-05-10T13:59:40;5.03;;;2.70;;
75603;SDS011;64187;51.010;13.792;2023-05-10T14:04:39;5.35;;;2.97;;
75603;SDS011;64187;51.010;13.792;2023-05-10T14:09:43;3.88;;;2.90;;
75603;SDS011;64187;51.010;13.792;2023-05-10T14:14:42;5.28;;;2.60;;
75603;SDS011;64187;51.010;13.792;2023-05-10T14:19:41;4.05;;;2.50;;
75603;SDS011;64187;51.010;13.792;2023-05-10T14:24:40;3.28;;;2.65;;
75603;SDS011;64187;51.010;13.792;2023-05-10T14:29:39;3.83;;;2.10;;
75603;SDS011;64187;51.010;13.792;2023-05-10T14:34:38;3.53;;;2.30;;
75603;SDS011;64187;51.010;13.792;2023-05-10T14:39:37;3.53;;;2.67;;
75603;SDS011;64187;51.010;13.792;2023-05-10T14:44:36;4.63;;;2.30;;
75603;SDS011;64187;51.010;13.792;2023-05-10T14:49:35;4.63;;;2.72;;
75603;SDS011;64187;51.010;13.792;2023-05-10T14:54:34;3.38;;;2.53;;
75603;SDS011;64187;51.010;13.792;2023-05-10T14:59:33;4.50;;;2.83;;
75603;SDS011;64187;51.010;13.792;2023-05-10T15:04:33;2.85;;;2.40;;
75603;SDS011;64187;51.010;13.792;2023-05-10T15:09:32;4.50;;;2.53;;
75603;SDS011;64187;51.010;13.792;2023-05-10T15:14:31;3.72;;;2.78;;
75603;SDS011;64187;51.010;13.792;2023-05-10T15:19:31;2.60;;;2.35;;
75603;SDS011;64187;51.010;13.792;2023-05-10T15:24:31;2.95;;;2.50;;
75603;SDS011;64187;51.010;13.792;2023-05-10T15:29:30;3.65;;;2.70;;
75603;SDS011;64187;51.010;13.792;2023-05-10T15:34:29;2.72;;;2.45;;
75603;SDS011;64187;51.010;13.792;2023-05-10T15:39:31;5.53;;;2.75;;
75603;SDS011;64187;51.010;13.792;2023-05-10T15:44:30;3.17;;;2.20;;
75603;SDS011;64187;51.010;13.792;2023-05-10T15:49:29;4.97;;;2.50;;
75603;SDS011;64187;51.010;13.792;2023-05-10T15:54:28;3.83;;;2.58;;
75603;SDS011;64187;51.010;13.792;2023-05-10T15:59:27;4.63;;;2.33;;
75603;SDS011;64187;51.010;13.792;2023-05-10T16:04:26;3.90;;;2.72;;
75603;SDS011;64187;51.010;13.792;2023-05-10T16:09:25;5.88;;;2.70;;
75603;SDS011;64187;51.010;13.792;2023-05-10T16:14:24;3.60;;;2.42;;
75603;SDS011;64187;51.010;13.792;2023-05-10T16:19:23;3.25;;;2.42;;
75603;SDS011;64187;51.010;13.792;2023-05-10T16:24:24;2.83;;;2.47;;
75603;SDS011;64187;51.010;13.792;2023-05-10T16:29:23;6.28;;;3.03;;
75603;SDS011;64187;51.010;13.792;2023-05-10T16:34:22;3.80;;;3.13;;
75603;SDS011;64187;51.010;13.792;2023-05-10T16:39:22;3.17;;;2.45;;
75603;SDS011;64187;51.010;13.792;2023-05-10T16:44:21;3.80;;;2.40;;
75603;SDS011;64187;51.010;13.792;2023-05-10T16:49:23;4.03;;;2.63;;
75603;SDS011;64187;51.010;13.792;2023-05-10T16:54:23;5.57;;;2.72;;
75603;SDS011;64187;51.010;13.792;2023-05-10T16:59:23;3.05;;;2.35;;
75603;SDS011;64187;51.010;13.792;2023-05-10T17:04:22;4.07;;;3.30;;
75603;SDS011;64187;51.010;13.792;2023-05-10T17:09:21;3.30;;;2.60;;
75603;SDS011;64187;51.010;13.792;2023-05-10T17:14:20;3.80;;;2.78;;
75603;SDS011;64187;51.010;13.792;2023-05-10T17:19:19;4.05;;;3.65;;
75603;SDS011;64187;51.010;13.792;2023-05-10T17:24:18;2.90;;;2.20;;
75603;SDS011;64187;51.010;13.792;2023-05-10T17:29:16;3.70;;;2.50;;
75603;SDS011;64187;51.010;13.792;2023-05-10T17:34:15;2.55;;;2.35;;
75603;SDS011;64187;51.010;13.792;2023-05-10T17:39:14;6.00;;;2.70;;
75603;SDS011;64187;51.010;13.792;2023-05-10T17:44:13;2.97;;;2.40;;
75603;SDS011;64187;51.010;13.792;2023-05-10T17:49:13;3.60;;;2.63;;
75603;SDS011;64187;51.010;13.792;2023-05-10T17:54:13;4.93;;;2.97;;
75603;SDS011;64187;51.010;13.792;2023-05-10T17:59:12;3.33;;;2.65;;
75603;SDS011;64187;51.010;13.792;2023-05-10T18:04:11;3.60;;;2.67;;
75603;SDS011;64187;51.010;13.792;2023-05-10T18:09:10;4.57;;;2.45;;
75603;SDS011;64187;51.010;13.792;2023-05-10T18:14:09;3.03;;;2.60;;
75603;SDS011;64187;51.010;13.792;2023-05-10T18:19:08;4.32;;;2.42;;
75603;SDS011;64187;51.010;13.792;2023-05-10T18:24:07;4.00;;;2.58;;
75603;SDS011;64187;51.010;13.792;2023-05-10T18:29:06;3.33;;;2.33;;
75603;SDS011;64187;51.010;13.792;2023-05-10T18:34:06;3.45;;;2.28;;
75603;SDS011;64187;51.010;13.792;2023-05-10T18:39:04;4.22;;;2.20;;
75603;SDS011;64187;51.010;13.792;2023-05-10T18:44:03;2.10;;;1.85;;
75603;SDS011;64187;51.010;13.792;2023-05-10T18:49:02;3.15;;;1.98;;
75603;SDS011;64187;51.010;13.792;2023-05-10T18:54:01;2.78;;;1.70;;
75603;SDS011;64187;51.010;13.792;2023-05-10T18:59:00;2.85;;;2.13;;
75603;SDS011;64187;51.010;13.792;2023-05-10T19:03:59;2.65;;;1.90;;
75603;SDS011;64187;51.010;13.792;2023-05-10T19:08:58;3.13;;;2.13;;
75603;SDS011;64187;51.010;13.792;2023-05-10T19:13:57;3.55;;;1.98;;
75603;SDS011;64187;51.010;13.792;2023-05-10T19:18:56;1.73;;;1.38;;
75603;SDS011;64187;51.010;13.792;2023-05-10T19:23:55;2.03;;;1.60;;
75603;SDS011;64187;51.010;13.792;2023-05-10T19:28:55;2.17;;;1.50;;
75603;SDS011;64187;51.010;13.792;2023-05-10T19:33:55;1.88;;;1.63;;
75603;SDS011;64187;51.010;13.792;2023-05-10T19:38:58;2.70;;;1.92;;
75603;SDS011;64187;51.010;13.792;2023-05-10T19:43:57;2.65;;;1.70;;
75603;SDS011;64187;51.010;13.792;2023-05-10T19:48:56;2.65;;;2.00;;
75603;SDS011;64187;51.010;13.792;2023-05-10T19:53:59;1.83;;;1.45;;
75603;SDS011;64187;51.010;13.792;2023-05-10T19:58:58;3.35;;;2.00;;
75603;SDS011;64187;51.010;13.792;2023-05-10T20:03:57;3.00;;;2.25;;
75603;SDS011;64187;51.010;13.792;2023-05-10T20:08:56;2.47;;;1.98;;
75603;SDS011;64187;51.010;13.792;2023-05-10T20:13:55;2.08;;;1.80;;
75603;SDS011;64187;51.010;13.792;2023-05-10T20:18:54;3.15;;;2.00;;
75603;SDS011;64187;51.010;13.792;2023-05-10T20:23:53;2.70;;;2.10;;
75603;SDS011;64187;51.010;13.792;2023-05-10T20:28:52;3.40;;;2.42;;
75603;SDS011;64187;51.010;13.792;2023-05-10T20:33:50;3.42;;;2.13;;
75603;SDS011;64187;51.010;13.792;2023-05-10T20:38:49;3.42;;;1.95;;
75603;SDS011;64187;51.010;13.792;2023-05-10T20:43:48;2.78;;;2.30;;
75603;SDS011;64187;51.010;13.792;2023-05-10T20:48:47;3.05;;;2.10;;
75603;SDS011;64187;51.010;13.792;2023-05-10T20:53:46;2.72;;;1.92;;
75603;SDS011;64187;51.010;13.792;2023-05-10T20:58:45;10.45;;;4.63;;
75603;SDS011;64187;51.010;13.792;2023-05-10T21:03:43;5.38;;;2.95;;
75603;SDS011;64187;51.010;13.792;2023-05-10T21:08:42;4.97;;;2.30;;
75603;SDS011;64187;51.010;13.792;2023-05-10T21:13:41;2.90;;;2.38;;
75603;SDS011;64187;51.010;13.792;2023-05-10T21:18:40;3.72;;;2.35;;
75603;SDS011;64187;51.010;13.792;2023-05-10T21:23:40;2.90;;;2.20;;
75603;SDS011;64187;51.010;13.792;2023-05-10T21:28:39;3.67;;;2.13;;
75603;SDS011;64187;51.010;13.792;2023-05-10T21:33:39;3.78;;;2.53;;
75603;SDS011;64187;51.010;13.792;2023-05-10T21:38:38;2.58;;;2.13;;
75603;SDS011;64187;51.010;13.792;2023-05-10T21:43:38;4.10;;;2.58;;
75603;SDS011;64187;51.010;13.792;2023-05-10T21:48:37;4.75;;;2.50;;
75603;SDS011;64187;51.010;13.792;2023-05-10T21:53:36;8.18;;;2.78;;
75603;SDS011;64187;51.010;13.792;2023-05-10T21:58:36;4.05;;;2.45;;
75603;SDS011;64187;51.010;13.792;2023-05-10T22:03:35;6.03;;;3.47;;
75603;SDS011;64187;51.010;13.792;2023-05-10T22:08:34;3.97;;;2.90;;
75603;SDS011;64187;51.010;13.792;2023-05-10T22:13:33;4.15;;;3.13;;
75603;SDS011;64187;51.010;13.792;2023-05-10T22:18:31;4.00;;;3.00;;
75603;SDS011;64187;51.010;13.792;2023-05-10T22:23:30;4.28;;;3.00;;
75603;SDS011;64187;51.010;13.792;2023-05-10T22:28:29;7.40;;;3.25;;
75603;SDS011;64187;51.010;13.792;2023-05-10T22:33:28;5.20;;;3.13;;
75603;SDS011;64187;51.010;13.792;2023-05-10T22:38:28;4.18;;;2.72;;
75603;SDS011;64187;51.010;13.792;2023-05-10T22:43:27;5.75;;;3.20;;
75603;SDS011;64187;51.010;13.792;2023-05-10T22:48:26;4.72;;;3.40;;
75603;SDS011;64187;51.010;13.792;2023-05-10T22:53:26;5.55;;;3.53;;
75603;SDS011;64187;51.010;13.792;2023-05-10T22:58:25;6.20;;;3.70;;
75603;SDS011;64187;51.010;13.792;2023-05-10T23:03:24;4.68;;;3.33;;
75603;SDS011;64187;51.010;13.792;2023-05-10T23:08:23;4.95;;;3.40;;
75603;SDS011;64187;51.010;13.792;2023-05-10T23:13:22;5.05;;;3.25;;
75603;SDS011;64187;51.010;13.792;2023-05-10T23:18:22;6.78;;;3.53;;
75603;SDS011;64187;51.010;13.792;2023-05-10T23:23:20;4.40;;;3.20;;
75603;SDS011;64187;51.010;13.792;2023-05-10T23:28:20;4.57;;;3.45;;
75603;SDS011;64187;51.010;13.792;2023-05-10T23:33:18;5.75;;;3.00;;
75603;SDS011;64187;51.010;13.792;2023-05-10T23:38:17;8.35;;;3.70;;
75603;SDS011;64187;51.010;13.792;2023-05-10T23:43:16;6.03;;;4.55;;
75603;SDS011;64187;51.010;13.792;2023-05-10T23:48:17;5.45;;;4.20;;
75603;SDS011;64187;51.010;13.792;2023-05-10T23:53:16;5.05;;;4.35;;
75603;SDS011;64187;51.010;13.792;2023-05-10T23:58:14;6.93;;;4.70;;
